createdAt,value
2023-05-05T00:00:20.901Z,6.40
2023-05-05T00:02:49.873Z,8.37
2023-05-05T00:05:18.048Z,5.87
2023-05-05T00:07:46.624Z,7.30
2023-05-05T00:10:15.189Z,8.80
2023-05-05T00:12:43.728Z,6.17
2023-05-05T00:15:11.889Z,10.83
2023-05-05T00:17:40.680Z,6.03
2023-05-05T00:20:10.108Z,11.07
2023-05-05T00:22:38.780Z,9.80
2023-05-05T00:25:07.669Z,8.10
2023-05-05T00:27:36.330Z,6.80
2023-05-05T00:30:06.186Z,7.20
2023-05-05T00:32:34.868Z,7.50
2023-05-05T00:35:02.996Z,9.17
2023-05-05T00:37:31.561Z,7.37
2023-05-05T00:40:00.197Z,6.47
2023-05-05T00:42:28.550Z,8.37
2023-05-05T00:44:56.641Z,12.10
2023-05-05T00:47:25.091Z,7.13
2023-05-05T00:49:53.634Z,7.93
2023-05-05T00:52:22.197Z,8.17
2023-05-05T00:54:50.440Z,8.57
2023-05-05T00:57:18.615Z,7.57
2023-05-05T00:59:48.006Z,9.97
2023-05-05T01:02:16.486Z,9.97
2023-05-05T01:04:44.583Z,7.67
2023-05-05T01:10:42.261Z,8.93
2023-05-05T01:13:22.475Z,8.47
2023-05-05T01:16:16.261Z,9.03
2023-05-05T01:19:25.705Z,9.27
2023-05-05T01:22:01.533Z,7.23
2023-05-05T01:24:56.979Z,8.10
2023-05-05T01:27:50.001Z,7.50
2023-05-05T01:30:58.318Z,6.73
2023-05-05T01:33:35.211Z,9.03
2023-05-05T01:36:14.537Z,6.83
2023-05-05T01:38:46.148Z,8.83
2023-05-05T01:41:27.989Z,8.13
2023-05-05T01:44:01.318Z,9.20
2023-05-05T01:46:29.899Z,9.23
2023-05-05T01:48:59.310Z,7.80
2023-05-05T01:51:29.392Z,8.10
2023-05-05T01:54:02.697Z,6.17
2023-05-05T01:56:32.784Z,7.07
2023-05-05T01:59:02.441Z,6.73
2023-05-05T02:01:31.782Z,8.30
2023-05-05T02:04:01.045Z,9.73
2023-05-05T02:06:32.464Z,6.87
2023-05-05T02:09:01.553Z,7.03
2023-05-05T02:11:30.755Z,8.27
2023-05-05T02:14:00.110Z,8.67
2023-05-05T02:16:31.228Z,9.20
2023-05-05T02:19:04.721Z,7.33
2023-05-05T02:21:33.922Z,7.73
2023-05-05T02:24:02.641Z,8.80
2023-05-05T02:26:34.251Z,7.33
2023-05-05T02:29:18.835Z,7.90
2023-05-05T02:31:51.194Z,9.87
2023-05-05T02:34:25.354Z,8.97
2023-05-05T02:36:57.368Z,9.60
2023-05-05T02:39:58.389Z,7.57
2023-05-05T02:42:30.723Z,8.47
2023-05-05T02:45:03.505Z,9.53
2023-05-05T02:47:38.650Z,6.67
2023-05-05T02:50:08.859Z,8.43
2023-05-05T02:52:37.807Z,8.17
2023-05-05T02:55:08.018Z,6.90
2023-05-05T02:57:44.728Z,9.93
2023-05-05T03:00:45.948Z,7.83
2023-05-05T03:03:32.473Z,10.60
2023-05-05T03:06:24.093Z,11.23
2023-05-05T03:09:11.176Z,8.60
2023-05-05T03:11:51.625Z,10.33
2023-05-05T03:14:22.316Z,7.10
2023-05-05T03:16:51.380Z,9.47
2023-05-05T03:19:21.437Z,7.57
2023-05-05T03:21:50.016Z,8.67
2023-05-05T03:24:22.473Z,9.50
2023-05-05T03:26:51.517Z,7.63
2023-05-05T03:29:19.674Z,8.17
2023-05-05T03:31:48.168Z,7.70
2023-05-05T03:34:16.314Z,6.63
2023-05-05T03:36:44.804Z,12.70
2023-05-05T03:39:13.276Z,8.60
2023-05-05T03:41:41.331Z,7.97
2023-05-05T03:44:09.780Z,7.60
2023-05-05T03:46:38.239Z,10.57
2023-05-05T03:49:07.160Z,7.80
2023-05-05T03:51:35.676Z,9.13
2023-05-05T03:54:04.329Z,12.27
2023-05-05T03:56:32.541Z,11.17
2023-05-05T03:59:00.807Z,10.00
2023-05-05T04:01:31.449Z,8.50
2023-05-05T04:03:59.991Z,7.83
2023-05-05T04:06:28.125Z,8.43
2023-05-05T04:08:56.694Z,9.10
2023-05-05T04:11:25.222Z,8.87
2023-05-05T04:13:53.704Z,12.20
2023-05-05T04:16:22.271Z,9.20
2023-05-05T04:18:50.786Z,8.97
2023-05-05T04:21:19.419Z,9.83
2023-05-05T04:23:47.513Z,9.03
2023-05-05T04:26:15.649Z,9.00
2023-05-05T04:28:44.050Z,9.83
2023-05-05T04:31:12.642Z,10.63
2023-05-05T04:33:41.236Z,8.90
2023-05-05T04:36:09.830Z,14.00
2023-05-05T04:38:38.359Z,9.30
2023-05-05T04:41:07.486Z,11.03
2023-05-05T04:43:35.912Z,10.83
2023-05-05T04:46:04.448Z,9.63
2023-05-05T04:48:34.398Z,8.57
2023-05-05T04:51:07.202Z,8.73
2023-05-05T04:53:36.088Z,14.63
2023-05-05T04:56:04.649Z,10.20
2023-05-05T04:58:33.074Z,10.47
2023-05-05T05:01:01.582Z,9.77
2023-05-05T05:03:32.123Z,7.97
2023-05-05T05:06:00.888Z,8.60
2023-05-05T05:08:29.344Z,8.17
2023-05-05T05:10:57.473Z,8.27
2023-05-05T05:13:26.163Z,12.07
2023-05-05T05:15:54.724Z,11.77
2023-05-05T05:18:23.194Z,10.17
2023-05-05T05:20:51.336Z,8.27
2023-05-05T05:23:19.546Z,10.40
2023-05-05T05:25:47.871Z,11.87
2023-05-05T05:28:16.420Z,10.57
2023-05-05T05:30:44.598Z,10.30
2023-05-05T05:33:13.104Z,8.93
2023-05-05T05:35:41.644Z,9.30
2023-05-05T05:38:10.147Z,8.67
2023-05-05T05:40:38.666Z,7.17
2023-05-05T05:43:07.232Z,11.00
2023-05-05T05:45:35.929Z,10.40
2023-05-05T05:48:04.524Z,7.73
2023-05-05T05:50:33.209Z,8.27
2023-05-05T05:53:01.735Z,6.57
2023-05-05T05:55:30.224Z,7.27
2023-05-05T05:57:58.763Z,9.17
2023-05-05T06:00:27.149Z,8.23
2023-05-05T06:02:55.785Z,8.03
2023-05-05T06:05:24.398Z,8.23
2023-05-05T06:07:52.904Z,8.77
2023-05-05T06:12:54.111Z,8.83
2023-05-05T06:15:22.629Z,6.57
2023-05-05T06:17:51.214Z,7.27
2023-05-05T06:20:19.552Z,13.50
2023-05-05T06:22:47.728Z,6.43
2023-05-05T06:25:16.662Z,7.90
2023-05-05T06:27:45.176Z,6.93
2023-05-05T06:30:14.823Z,6.80
2023-05-05T06:32:43.412Z,8.80
2023-05-05T06:35:12.397Z,9.70
2023-05-05T06:37:40.937Z,6.03
2023-05-05T06:40:10.549Z,10.17
2023-05-05T06:42:39.193Z,8.90
2023-05-05T06:45:08.059Z,7.93
2023-05-05T06:47:37.025Z,9.23
2023-05-05T06:50:05.762Z,9.37
2023-05-05T06:52:34.559Z,8.80
2023-05-05T06:55:03.880Z,5.57
2023-05-05T06:57:32.451Z,7.40
2023-05-05T07:00:01.235Z,6.73
2023-05-05T07:02:29.888Z,8.93
2023-05-05T07:04:58.579Z,8.53
2023-05-05T07:07:27.134Z,6.03
2023-05-05T07:09:55.919Z,5.37
2023-05-05T07:12:24.486Z,6.37
2023-05-05T07:14:52.945Z,9.43
2023-05-05T07:17:22.172Z,6.00
2023-05-05T07:19:51.316Z,4.47
2023-05-05T07:22:19.833Z,5.43
2023-05-05T07:24:49.739Z,4.70
2023-05-05T07:27:18.960Z,6.00
2023-05-05T07:29:47.423Z,4.90
2023-05-05T07:32:16.197Z,5.87
2023-05-05T07:34:44.729Z,5.93
2023-05-05T07:37:13.741Z,10.17
2023-05-05T07:39:42.272Z,7.50
2023-05-05T07:42:11.388Z,5.73
2023-05-05T07:44:39.961Z,7.97
2023-05-05T07:47:08.493Z,9.87
2023-05-05T07:49:36.996Z,6.37
2023-05-05T07:52:05.768Z,6.53
2023-05-05T07:54:34.311Z,5.37
2023-05-05T07:57:03.008Z,6.17
2023-05-05T07:59:31.512Z,4.07
2023-05-05T08:01:59.934Z,5.90
2023-05-05T08:04:28.744Z,6.50
2023-05-05T08:06:57.285Z,4.20
2023-05-05T08:09:25.827Z,7.43
2023-05-05T08:11:54.368Z,4.40
2023-05-05T08:14:22.898Z,5.77
2023-05-05T08:16:51.344Z,3.20
2023-05-05T08:19:28.818Z,8.97
2023-05-05T08:22:00.575Z,3.50
2023-05-05T08:24:29.741Z,4.63
2023-05-05T08:26:58.595Z,4.80
2023-05-05T08:29:27.109Z,6.53
2023-05-05T08:31:55.853Z,4.37
2023-05-05T08:34:24.385Z,4.93
2023-05-05T08:36:52.952Z,6.73
2023-05-05T08:39:21.412Z,5.40
2023-05-05T08:41:50.056Z,3.93
2023-05-05T08:44:18.595Z,3.67
2023-05-05T08:46:47.244Z,4.40
2023-05-05T08:49:16.995Z,3.00
2023-05-05T08:51:46.981Z,4.43
2023-05-05T08:54:20.188Z,4.13
2023-05-05T08:56:51.483Z,4.83
2023-05-05T08:59:25.120Z,4.33
2023-05-05T09:01:54.971Z,5.87
2023-05-05T09:04:23.804Z,4.80
2023-05-05T09:06:52.337Z,3.70
2023-05-05T09:09:21.473Z,4.43
2023-05-05T09:11:50.319Z,4.87
2023-05-05T09:14:18.750Z,6.33
2023-05-05T09:16:47.292Z,4.47
2023-05-05T09:19:15.839Z,5.97
2023-05-05T09:21:53.069Z,5.30
2023-05-05T09:24:21.835Z,3.97
2023-05-05T09:26:50.341Z,4.93
2023-05-05T09:29:23.141Z,7.70
2023-05-05T09:32:19.192Z,5.30
2023-05-05T09:35:02.393Z,5.27
2023-05-05T09:37:32.745Z,5.53
2023-05-05T09:40:02.097Z,4.73
2023-05-05T09:42:30.610Z,5.20
2023-05-05T09:44:59.999Z,5.77
2023-05-05T09:47:38.705Z,3.80
2023-05-05T09:50:07.765Z,4.27
2023-05-05T09:52:36.518Z,7.67
2023-05-05T09:55:05.086Z,3.63
2023-05-05T09:57:35.451Z,4.93
2023-05-05T10:00:06.312Z,5.47
2023-05-05T10:02:37.553Z,4.20
2023-05-05T10:05:15.600Z,4.03
2023-05-05T10:07:46.981Z,5.37
2023-05-05T10:10:17.650Z,2.90
2023-05-05T10:12:47.930Z,4.93
2023-05-05T10:15:17.883Z,8.07
2023-05-05T10:18:06.192Z,4.00
2023-05-05T10:20:38.144Z,3.73
2023-05-05T10:23:09.481Z,3.23
2023-05-05T10:26:08.055Z,3.83
2023-05-05T10:28:46.137Z,6.40
2023-05-05T10:31:26.411Z,5.60
2023-05-05T10:34:04.618Z,5.67
2023-05-05T10:36:33.653Z,4.33
2023-05-05T10:39:02.286Z,2.50
2023-05-05T10:41:31.999Z,7.13
2023-05-05T10:44:03.675Z,3.83
2023-05-05T10:46:33.191Z,5.83
2023-05-05T10:49:26.836Z,3.57
2023-05-05T10:52:23.208Z,3.30
2023-05-05T10:55:31.702Z,4.40
2023-05-05T10:58:01.039Z,3.27
2023-05-05T11:00:41.406Z,5.50
2023-05-05T11:03:18.881Z,4.80
2023-05-05T11:06:05.108Z,6.23
2023-05-05T11:08:35.503Z,4.03
2023-05-05T11:11:04.624Z,3.17
2023-05-05T11:13:33.490Z,5.20
2023-05-05T11:16:03.185Z,5.87
2023-05-05T11:18:44.496Z,3.17
2023-05-05T11:21:17.557Z,6.83
2023-05-05T11:23:51.316Z,4.73
2023-05-05T11:26:50.347Z,4.60
2023-05-05T11:29:18.861Z,2.27
2023-05-05T11:31:48.803Z,3.53
2023-05-05T11:34:30.137Z,2.23
2023-05-05T11:37:03.335Z,3.37
2023-05-05T11:39:44.416Z,5.37
2023-05-05T11:42:27.755Z,2.60
2023-05-05T11:44:56.697Z,4.40
2023-05-05T11:47:28.038Z,3.80
2023-05-05T11:49:56.895Z,3.03
2023-05-05T11:52:27.554Z,4.93
2023-05-05T11:55:02.292Z,2.30
2023-05-05T11:57:31.327Z,4.50
2023-05-05T12:00:04.678Z,2.43
2023-05-05T12:02:33.361Z,3.67
2023-05-05T12:05:02.724Z,4.03
2023-05-05T12:07:33.733Z,4.13
2023-05-05T12:10:02.324Z,2.37
2023-05-05T12:12:41.506Z,5.03
2023-05-05T12:15:10.816Z,4.47
2023-05-05T12:17:42.817Z,3.50
2023-05-05T12:20:12.827Z,5.87
2023-05-05T12:22:42.166Z,4.57
2023-05-05T12:25:10.912Z,5.23
2023-05-05T12:27:39.429Z,3.60
2023-05-05T12:30:19.614Z,4.87
2023-05-05T12:32:48.219Z,2.37
2023-05-05T12:35:17.139Z,3.27
2023-05-05T12:37:46.404Z,4.57
2023-05-05T12:40:47.957Z,6.37
2023-05-05T12:43:45.950Z,4.63
2023-05-05T12:46:14.982Z,3.90
2023-05-05T12:48:47.231Z,4.63
2023-05-05T12:51:24.217Z,3.30
2023-05-05T12:54:11.246Z,6.73
2023-05-05T12:56:44.826Z,6.03
2023-05-05T12:59:30.077Z,3.63
2023-05-05T13:02:01.498Z,5.27
2023-05-05T13:04:30.447Z,3.97
2023-05-05T13:07:15.760Z,5.47
2023-05-05T13:09:54.649Z,4.00
2023-05-05T13:12:24.465Z,4.17
2023-05-05T13:14:56.221Z,3.93
2023-05-05T13:17:24.697Z,4.33
2023-05-05T13:19:53.218Z,3.63
2023-05-05T13:22:21.737Z,3.83
2023-05-05T13:24:52.805Z,2.80
2023-05-05T13:27:37.758Z,5.93
2023-05-05T13:30:06.701Z,6.70
2023-05-05T13:32:35.796Z,3.43
2023-05-05T13:35:04.543Z,4.40
2023-05-05T13:37:33.106Z,4.23
2023-05-05T13:40:01.625Z,3.43
2023-05-05T13:42:30.262Z,5.67
2023-05-05T13:44:58.760Z,3.27
2023-05-05T13:47:27.282Z,3.20
2023-05-05T13:49:56.252Z,3.23
2023-05-05T13:52:24.746Z,4.60
2023-05-05T13:54:53.340Z,3.87
2023-05-05T13:57:21.911Z,4.53
2023-05-05T13:59:50.456Z,2.57
2023-05-05T14:02:18.946Z,3.27
2023-05-05T14:04:47.621Z,5.17
2023-05-05T14:07:16.056Z,6.40
2023-05-05T14:09:44.568Z,3.00
2023-05-05T14:12:13.501Z,4.47
2023-05-05T14:14:41.941Z,3.47
2023-05-05T14:17:10.422Z,5.23
2023-05-05T14:19:38.957Z,4.13
2023-05-05T14:22:07.418Z,4.10
2023-05-05T14:24:35.979Z,4.53
2023-05-05T14:27:04.786Z,3.60
2023-05-05T14:29:33.468Z,4.60
2023-05-05T14:32:02.112Z,2.60
2023-05-05T14:34:30.637Z,3.43
2023-05-05T14:36:59.228Z,3.93
2023-05-05T14:39:27.733Z,3.43
2023-05-05T14:41:56.172Z,4.37
2023-05-05T14:44:24.709Z,7.33
2023-05-05T14:46:53.669Z,4.13
2023-05-05T14:49:22.151Z,3.53
2023-05-05T14:51:50.698Z,3.97
2023-05-05T14:54:27.902Z,4.33
2023-05-05T14:56:58.366Z,3.30
2023-05-05T14:59:27.582Z,2.67
2023-05-05T15:01:56.314Z,2.53
2023-05-05T15:04:24.892Z,2.63
2023-05-05T15:06:53.369Z,5.07
2023-05-05T15:09:21.812Z,3.10
2023-05-05T15:11:50.308Z,6.13
2023-05-05T15:14:18.776Z,6.77
2023-05-05T15:16:47.699Z,5.33
2023-05-05T15:19:16.168Z,4.47
2023-05-05T15:21:44.621Z,4.70
2023-05-05T15:24:13.332Z,3.70
2023-05-05T15:26:42.098Z,7.03
2023-05-05T15:29:10.597Z,5.93
2023-05-05T15:31:39.189Z,4.50
2023-05-05T15:34:07.661Z,2.73
2023-05-05T15:36:36.200Z,4.37
2023-05-05T15:39:04.848Z,3.30
2023-05-05T15:41:35.660Z,4.37
2023-05-05T15:44:04.970Z,3.87
2023-05-05T15:46:34.261Z,5.63
2023-05-05T15:49:02.799Z,3.17
2023-05-05T15:51:32.360Z,4.53
2023-05-05T15:54:00.878Z,3.67
2023-05-05T15:56:29.562Z,7.60
2023-05-05T15:58:58.006Z,5.57
2023-05-05T16:01:26.584Z,4.30
2023-05-05T16:03:55.084Z,6.13
2023-05-05T16:06:23.565Z,5.00
2023-05-05T16:08:52.092Z,5.40
2023-05-05T16:11:22.385Z,5.47
2023-05-05T16:13:52.322Z,3.80
2023-05-05T16:16:20.846Z,3.60
2023-05-05T16:18:50.111Z,5.03
2023-05-05T16:21:18.635Z,5.23
2023-05-05T16:23:47.491Z,4.73
2023-05-05T16:26:16.245Z,4.50
2023-05-05T16:28:44.809Z,4.33
2023-05-05T16:31:13.670Z,6.07
2023-05-05T16:33:43.764Z,3.20
2023-05-05T16:36:13.035Z,7.00
2023-05-05T16:38:44.626Z,2.90
2023-05-05T16:41:13.291Z,4.97
2023-05-05T16:43:41.790Z,3.47
2023-05-05T16:46:10.408Z,6.53
2023-05-05T16:48:39.122Z,3.13
2023-05-05T16:51:07.625Z,6.03
2023-05-05T16:53:36.354Z,4.47
2023-05-05T16:56:04.996Z,4.93
2023-05-05T16:58:33.667Z,5.60
2023-05-05T17:01:03.497Z,5.03
2023-05-05T17:03:31.977Z,5.70
2023-05-05T17:06:00.774Z,6.77
2023-05-05T17:08:29.468Z,8.17
2023-05-05T17:10:58.069Z,3.67
2023-05-05T17:13:26.915Z,11.17
2023-05-05T17:15:55.502Z,5.07
2023-05-05T17:18:26.040Z,4.30
2023-05-05T17:20:54.624Z,3.30
2023-05-05T17:23:23.307Z,3.53
2023-05-05T17:25:51.858Z,7.77
2023-05-05T17:28:20.733Z,3.93
2023-05-05T17:30:49.266Z,6.07
2023-05-05T17:33:21.481Z,3.33
2023-05-05T17:35:50.170Z,9.97
2023-05-05T17:38:18.618Z,6.93
2023-05-05T17:40:47.264Z,5.37
2023-05-05T17:43:15.821Z,3.77
2023-05-05T17:45:44.465Z,4.47
2023-05-05T17:48:12.969Z,4.80
2023-05-05T17:50:43.313Z,3.30
2023-05-05T17:53:12.377Z,5.90
2023-05-05T17:55:40.922Z,4.27
2023-05-05T17:58:09.404Z,5.93
2023-05-05T18:00:38.174Z,6.43
2023-05-05T18:03:06.846Z,3.73
2023-05-05T18:05:35.525Z,7.80
2023-05-05T18:08:04.132Z,6.70
2023-05-05T18:10:32.734Z,8.93
2023-05-05T18:13:01.432Z,5.63
2023-05-05T18:15:30.863Z,4.80
2023-05-05T18:17:59.400Z,8.00
2023-05-05T18:20:27.973Z,4.73
2023-05-05T18:22:56.602Z,4.77
2023-05-05T18:25:25.086Z,6.10
2023-05-05T18:27:53.848Z,6.83
2023-05-05T18:30:22.581Z,5.03
2023-05-05T18:32:51.124Z,4.57
2023-05-05T18:35:19.615Z,5.07
2023-05-05T18:37:48.110Z,4.50
2023-05-05T18:40:16.821Z,5.17
2023-05-05T18:42:45.499Z,5.10
2023-05-05T18:45:13.964Z,4.47
2023-05-05T18:47:42.375Z,4.10
2023-05-05T18:50:11.097Z,5.47
2023-05-05T18:52:39.585Z,4.17
2023-05-05T18:55:08.408Z,4.97
2023-05-05T18:57:37.054Z,3.80
2023-05-05T19:00:05.879Z,3.73
2023-05-05T19:02:34.586Z,4.40
2023-05-05T19:05:03.913Z,7.17
2023-05-05T19:07:35.855Z,4.43
2023-05-05T19:10:06.506Z,4.73
2023-05-05T19:12:35.190Z,4.60
2023-05-05T19:15:03.751Z,6.03
2023-05-05T19:17:32.197Z,6.13
2023-05-05T19:20:00.743Z,9.23
2023-05-05T19:22:29.220Z,11.83
2023-05-05T19:24:57.726Z,9.70
2023-05-05T19:27:26.520Z,8.67
2023-05-05T19:29:55.047Z,7.43
2023-05-05T19:32:23.743Z,6.07
2023-05-05T19:34:54.384Z,7.97
2023-05-05T19:37:23.245Z,8.47
2023-05-05T19:39:51.783Z,8.57
2023-05-05T19:42:20.741Z,12.00
2023-05-05T19:44:49.271Z,10.00
2023-05-05T19:47:18.022Z,12.07
2023-05-05T19:49:46.609Z,7.97
2023-05-05T19:52:15.147Z,6.70
2023-05-05T19:54:43.930Z,8.33
2023-05-05T19:57:12.752Z,8.27
2023-05-05T19:59:41.762Z,7.50
2023-05-05T20:02:11.774Z,6.53
2023-05-05T20:04:40.482Z,8.17
2023-05-05T20:07:09.020Z,7.83
2023-05-05T20:09:38.066Z,7.50
2023-05-05T20:12:06.791Z,7.70
2023-05-05T20:14:35.720Z,9.63
2023-05-05T20:17:04.270Z,10.33
2023-05-05T20:19:32.744Z,10.40
2023-05-05T20:22:01.315Z,9.63
2023-05-05T20:24:29.903Z,9.47
2023-05-05T20:26:58.407Z,9.10
2023-05-05T20:29:26.855Z,9.40
2023-05-05T20:31:55.452Z,11.03
2023-05-05T20:34:25.195Z,8.90
2023-05-05T20:36:54.258Z,11.30
2023-05-05T20:39:22.942Z,10.57
2023-05-05T20:41:51.430Z,9.47
2023-05-05T20:44:19.864Z,10.30
2023-05-05T20:46:48.436Z,9.83
2023-05-05T20:49:17.011Z,11.03
2023-05-05T20:51:45.679Z,10.47
2023-05-05T20:54:14.316Z,10.63
2023-05-05T20:56:42.868Z,10.33
2023-05-05T20:59:11.381Z,10.30
2023-05-05T21:01:39.954Z,9.47
2023-05-05T21:04:08.471Z,9.50
2023-05-05T21:06:36.990Z,12.10
2023-05-05T21:09:06.853Z,11.10
2023-05-05T21:11:35.445Z,9.97
2023-05-05T21:14:05.343Z,12.33
2023-05-05T21:16:33.910Z,9.60
2023-05-05T21:19:02.569Z,10.60
2023-05-05T21:21:31.820Z,8.93
2023-05-05T21:24:00.429Z,10.03
2023-05-05T21:26:28.966Z,10.27
2023-05-05T21:28:57.455Z,9.63
2023-05-05T21:31:25.941Z,10.53
2023-05-05T21:33:54.534Z,9.07
2023-05-05T21:36:23.005Z,9.87
2023-05-05T21:38:51.543Z,9.40
2023-05-05T21:41:20.056Z,9.43
2023-05-05T21:43:48.224Z,10.97
2023-05-05T21:46:17.723Z,10.57
2023-05-05T21:48:48.626Z,11.13
2023-05-05T21:51:17.452Z,11.43
2023-05-05T21:53:46.218Z,10.20
2023-05-05T21:56:14.931Z,9.77
2023-05-05T21:58:43.382Z,10.43
2023-05-05T22:01:12.011Z,11.17
2023-05-05T22:03:42.246Z,11.03
2023-05-05T22:06:11.791Z,10.23
2023-05-05T22:08:40.240Z,9.50
2023-05-05T22:11:08.876Z,9.30
2023-05-05T22:13:38.956Z,10.53
2023-05-05T22:16:11.012Z,11.67
2023-05-05T22:18:39.688Z,11.67
2023-05-05T22:21:08.301Z,11.67
2023-05-05T22:23:37.171Z,11.50
2023-05-05T22:26:05.834Z,11.77
2023-05-05T22:28:34.315Z,10.70
2023-05-05T22:31:02.927Z,15.13
2023-05-05T22:33:31.494Z,11.07
2023-05-05T22:36:00.041Z,11.53
2023-05-05T22:38:28.148Z,10.97
2023-05-05T22:40:56.607Z,12.57
2023-05-05T22:43:25.137Z,11.03
2023-05-05T22:45:53.882Z,10.93
2023-05-05T22:48:22.921Z,14.83
2023-05-05T22:50:51.617Z,12.70
2023-05-05T22:53:20.112Z,12.00
2023-05-05T22:55:48.596Z,12.03
2023-05-05T22:58:17.059Z,14.97
2023-05-05T23:00:45.743Z,14.83
2023-05-05T23:03:14.919Z,12.83
2023-05-05T23:05:43.000Z,13.90
2023-05-05T23:08:11.474Z,12.43
2023-05-05T23:10:39.953Z,12.77
2023-05-05T23:13:08.522Z,12.13
2023-05-05T23:15:37.068Z,16.57
2023-05-05T23:18:05.631Z,12.70
2023-05-05T23:20:34.119Z,14.30
2023-05-05T23:23:02.244Z,14.17
2023-05-05T23:25:30.769Z,12.97
2023-05-05T23:27:59.285Z,16.13
2023-05-05T23:30:27.866Z,13.93
2023-05-05T23:32:57.531Z,13.23
2023-05-05T23:35:26.399Z,13.57
2023-05-05T23:37:54.879Z,13.57
2023-05-05T23:40:23.060Z,13.83
2023-05-05T23:42:51.220Z,13.53
2023-05-05T23:45:19.747Z,15.40
2023-05-05T23:47:48.195Z,13.70
2023-05-05T23:50:16.865Z,15.07
2023-05-05T23:52:45.795Z,13.70
2023-05-05T23:55:14.493Z,16.13
2023-05-05T23:57:42.594Z,13.83
